메인 페이지
METAR-TAF:

METAR-TAF

공항 :

옐로나이프, 노스웨스트 준주, 캐나다

위도: 62-28N, 경도: 114-27W, 고도: 205m

현재 날씨관측

예보는 51분 전, 02:00시(UTC)에 발표되었습니다.
13kt, 순간 최대 풍속 19kt
온도 -12°C
습도 78%
기압 986 hPa
시정: 12.9km
고도 5500ft 상공 흐림
약한눈, 낮은 날린눈

METAR: CYZF 130200Z 28013G19KT 8SM -SN DRSN OVC055 M12/M15 A2912 RMK SC8 SLP880

시각: 19:51 (02:51 UTC)

예보

예보는 3 시간 13분 전, 23:38시(UTC)에 발표되었습니다.
예보 대상 시간: 13일 00시부터 13일 24시까지 (UTC)
12kt, 순간 최대 풍속 22kt
시정: 3.2km
고도 5000ft 상공 흐림
약한눈, 박무
일시적
13일 00시부터 13일 04시까지 (UTC)
시정: 9.7km
약한눈, 박무
13일 0400시부터 (UTC)
10kt, 순간 최대 풍속 20kt
시정: 10km
고도 2500ft 상공 구름 많음
고도 10000ft 상공 흐림
약한눈
일시적
13일 04시부터 13일 10시까지 (UTC)
시정: 6.4km
고도 1500ft 상공 구름 많음
약한눈, 박무
13일 1200시부터 (UTC)
서북서8kt
시정: 10km
고도 2500ft 상공 구름 보통
고도 7000ft 상공 흐림
13일 1800시부터 (UTC)
서북서10kt, 순간 최대 풍속 20kt
시정: 10km
고도 3000ft 상공 구름 조금
고도 8000ft 상공 구름 보통

TAF: CYZF 122338Z 1300/1324 28012G22KT 2SM -SN BR OVC050 TEMPO 1300/1304 6SM -SN BR FM130400 28010G20KT P6SM -SN BKN025 OVC100 TEMPO 1304/1310 4SM -SN BR BKN015 FM131200 30008KT P6SM SCT025 OVC070 FM131800 29010G20KT P6SM FEW030 SCT080 RMK NXT FCST BY 130600Z

4,000개 이상의 공항 관측 자료 및 예보 (METAR 및 TAF 보고).

지도상에서 검색 가능한 기상관측소가 노란 점과 빨간 점으로 표시되어 있습니다.

기상관측소 명을 보려면 표시 위로 마우스를 이동하세요.

날씨 관측과 예보를 보려면 클릭하세요.

지도 변경 : 확대하려면 엑스 표시가 있는 녹색 버튼, 축소하려면 빼기 표시가 있는 녹색 버튼, 다음 페이지의 지도를 보려면 녹색 화살표를 클릭하세요.


METAR-TAF: